Time;durP1;ratioP1;P1;durP2;ratioP2;P2;SDS_P1;SDS_P2;PMS_P1;PMS_P2;Temp;Humidity;BMP_temperature;BMP_pressure;BME280_temperature;BME280_humidity;BME280_pressure;Samples;Min_cycle;Max_cycle;Signal;HPM_P1;HPM_P2
2023/11/16 00:00:12;;;;;;;0.30;0.20;;;12.00;99.90;;;;;;5104916;28;20184;-78
2023/11/16 00:02:41;;;;;;;0.30;0.20;;;12.00;99.90;;;;;;5104932;28;20176;-78
2023/11/16 00:05:07;;;;;;;0.30;0.20;;;12.00;99.90;;;;;;5104090;28;20476;-77
2023/11/16 00:07:33;;;;;;;0.30;0.20;;;12.00;99.90;;;;;;5104659;28;20322;-78
2023/11/16 00:09:59;;;;;;;0.30;0.20;;;11.90;99.90;;;;;;5106249;28;20425;-78
2023/11/16 00:12:25;;;;;;;0.30;0.20;;;11.90;99.90;;;;;;5104923;28;20172;-78
2023/11/16 00:14:50;;;;;;;0.30;0.20;;;11.90;99.90;;;;;;5104877;28;20199;-78
2023/11/16 00:17:16;;;;;;;0.30;0.20;;;11.90;99.90;;;;;;5104240;28;21007;-78
2023/11/16 00:19:42;;;;;;;0.90;0.73;;;11.90;99.90;;;;;;5106366;28;20231;-80
2023/11/16 00:22:09;;;;;;;0.30;0.20;;;11.90;99.90;;;;;;5105625;28;20186;-79
2023/11/16 00:24:35;;;;;;;0.30;0.20;;;11.90;99.90;;;;;;5106051;28;20455;-78
2023/11/16 00:27:01;;;;;;;0.30;0.30;;;11.90;99.90;;;;;;5104212;28;20697;-79
2023/11/16 00:29:27;;;;;;;0.30;0.30;;;11.90;99.90;;;;;;5105985;28;20195;-78
2023/11/16 00:31:53;;;;;;;0.30;0.20;;;12.00;99.90;;;;;;5104137;28;21045;-78
2023/11/16 00:34:19;;;;;;;0.30;0.20;;;12.00;99.90;;;;;;5106070;28;21147;-78
2023/11/16 00:36:45;;;;;;;0.30;0.20;;;12.00;99.90;;;;;;5105677;28;20407;-78
2023/11/16 00:39:12;;;;;;;0.30;0.20;;;12.00;99.90;;;;;;5105344;28;20805;-78
2023/11/16 00:41:38;;;;;;;0.30;0.20;;;11.90;99.90;;;;;;5104358;28;20453;-78
2023/11/16 00:44:05;;;;;;;0.30;0.20;;;11.90;99.90;;;;;;5105714;28;20610;-78
2023/11/16 00:46:35;;;;;;;0.30;0.20;;;11.90;99.90;;;;;;5105441;28;20203;-78
2023/11/16 00:49:01;;;;;;;0.30;0.20;;;11.90;99.90;;;;;;5105564;28;20429;-78
2023/11/16 00:51:27;;;;;;;0.30;0.20;;;11.90;99.90;;;;;;5105600;28;20539;-79
2023/11/16 00:53:54;;;;;;;0.30;0.20;;;11.80;99.90;;;;;;5106048;28;20409;-78
2023/11/16 00:56:20;;;;;;;0.30;0.20;;;11.80;99.90;;;;;;5105821;28;20453;-78
2023/11/16 00:58:45;;;;;;;0.30;0.20;;;11.80;99.90;;;;;;5103897;28;21000;-78
2023/11/16 01:01:15;;;;;;;0.30;0.20;;;11.80;99.90;;;;;;5105606;28;20164;-78
2023/11/16 01:03:42;;;;;;;0.30;0.20;;;11.70;99.90;;;;;;5105939;28;20188;-78
2023/11/16 01:06:08;;;;;;;0.30;0.20;;;11.70;99.90;;;;;;5105345;28;20243;-78
2023/11/16 01:08:36;;;;;;;0.30;0.20;;;11.70;99.90;;;;;;5103973;28;20200;-78
2023/11/16 01:11:03;;;;;;;0.30;0.20;;;11.80;99.90;;;;;;5104466;28;20519;-78
2023/11/16 01:13:38;;;;;;;0.30;0.20;;;11.80;99.90;;;;;;5105431;28;20241;-78
2023/11/16 01:16:09;;;;;;;1.00;1.00;;;11.80;99.90;;;;;;5106327;28;20233;-78
2023/11/16 01:18:37;;;;;;;0.30;0.20;;;11.80;99.90;;;;;;5109434;28;20246;-78
2023/11/16 01:21:08;;;;;;;0.30;0.20;;;11.80;99.90;;;;;;5109304;28;20207;-78
2023/11/16 01:23:36;;;;;;;0.30;0.20;;;11.80;99.90;;;;;;5108147;28;20199;-78
2023/11/16 01:26:03;;;;;;;0.30;0.20;;;11.80;99.90;;;;;;5109703;28;20811;-78
2023/11/16 01:28:31;;;;;;;0.30;0.20;;;11.80;99.90;;;;;;5109137;28;20184;-78
2023/11/16 01:31:02;;;;;;;0.30;0.20;;;11.80;99.90;;;;;;5107663;28;20431;-80
2023/11/16 01:33:28;;;;;;;0.30;0.20;;;11.80;99.90;;;;;;5109061;28;20256;-78
2023/11/16 01:35:55;;;;;;;0.30;0.20;;;11.70;99.90;;;;;;5108810;28;20459;-77
2023/11/16 01:38:21;;;;;;;0.30;0.20;;;11.70;99.90;;;;;;5108135;28;20435;-78
2023/11/16 01:40:47;;;;;;;0.30;0.30;;;11.70;99.90;;;;;;5107100;28;20183;-78
2023/11/16 01:43:12;;;;;;;0.50;0.50;;;11.60;99.90;;;;;;5107306;28;20333;-78
2023/11/16 01:45:38;;;;;;;0.30;0.20;;;11.60;99.90;;;;;;5107353;28;20531;-78
2023/11/16 01:48:08;;;;;;;0.30;0.20;;;11.60;99.90;;;;;;5107266;28;20463;-79
2023/11/16 01:50:39;;;;;;;0.30;0.20;;;11.60;99.90;;;;;;5107366;28;20188;-80
2023/11/16 01:53:09;;;;;;;0.30;0.20;;;11.50;99.90;;;;;;5108821;28;20608;-81
2023/11/16 01:55:38;;;;;;;0.30;0.20;;;11.50;99.90;;;;;;5108535;28;20259;-81
2023/11/16 01:58:04;;;;;;;0.30;0.20;;;11.50;99.90;;;;;;5108258;28;20333;-80
2023/11/16 02:00:36;;;;;;;0.30;0.20;;;11.50;99.90;;;;;;5107261;28;20471;-80
2023/11/16 02:03:05;;;;;;;0.30;0.20;;;11.50;99.90;;;;;;5107135;28;20690;-80
2023/11/16 02:05:32;;;;;;;0.30;0.20;;;11.50;99.90;;;;;;5108247;28;20204;-81
2023/11/16 02:08:01;;;;;;;0.30;0.20;;;11.40;99.90;;;;;;5108470;28;20191;-78
2023/11/16 02:10:30;;;;;;;0.30;0.20;;;11.40;99.90;;;;;;5106992;28;20180;-79
2023/11/16 02:12:56;;;;;;;0.77;0.75;;;11.40;99.90;;;;;;5107176;28;20632;-78
2023/11/16 02:15:22;;;;;;;0.30;0.20;;;11.40;99.90;;;;;;5108024;28;20228;-78
2023/11/16 02:17:48;;;;;;;0.30;0.20;;;11.40;99.90;;;;;;5106741;28;20353;-78
2023/11/16 02:20:15;;;;;;;0.30;0.20;;;11.40;99.90;;;;;;5108238;28;20392;-78
2023/11/16 02:22:42;;;;;;;0.30;0.20;;;11.40;99.90;;;;;;5108033;28;20333;-78
2023/11/16 02:25:08;;;;;;;0.30;0.20;;;11.40;99.90;;;;;;5106543;28;20215;-78
2023/11/16 02:27:35;;;;;;;0.30;0.20;;;11.40;99.90;;;;;;5106313;28;20183;-78
2023/11/16 02:30:01;;;;;;;0.30;0.20;;;11.40;99.90;;;;;;5106438;28;20765;-78
2023/11/16 02:32:26;;;;;;;0.30;0.20;;;11.30;99.90;;;;;;5108079;28;20172;-78
2023/11/16 02:34:52;;;;;;;0.30;0.20;;;11.30;99.90;;;;;;5107699;28;20898;-77
2023/11/16 02:37:18;;;;;;;0.30;0.20;;;11.30;99.90;;;;;;5106330;28;20176;-78
2023/11/16 02:39:44;;;;;;;0.30;0.20;;;11.30;99.90;;;;;;5105422;28;20540;-78
2023/11/16 02:42:13;;;;;;;0.30;0.20;;;11.20;99.90;;;;;;5107361;28;20180;-78
2023/11/16 02:44:42;;;;;;;0.30;0.20;;;11.20;99.90;;;;;;5106634;27;20207;-78
2023/11/16 02:47:08;;;;;;;0.30;0.20;;;11.20;99.90;;;;;;5105881;28;20348;-77
2023/11/16 02:49:34;;;;;;;0.30;0.20;;;11.20;99.90;;;;;;5106268;28;20582;-78
2023/11/16 02:52:00;;;;;;;0.30;0.20;;;11.20;99.90;;;;;;5105899;28;20172;-78
2023/11/16 02:54:26;;;;;;;0.30;0.20;;;11.20;99.90;;;;;;5106439;28;20519;-78
2023/11/16 02:56:53;;;;;;;0.30;0.20;;;11.30;99.90;;;;;;5105694;27;20179;-78
2023/11/16 02:59:19;;;;;;;0.30;0.20;;;11.30;99.90;;;;;;5107119;28;20191;-79
2023/11/16 03:01:44;;;;;;;0.30;0.20;;;11.30;99.90;;;;;;5107235;28;20270;-78
2023/11/16 03:04:10;;;;;;;0.30;0.20;;;11.30;99.90;;;;;;5107680;28;20481;-78
2023/11/16 03:06:39;;;;;;;0.30;0.20;;;11.30;99.90;;;;;;5105682;28;20506;-78
2023/11/16 03:09:05;;;;;;;0.30;0.20;;;11.40;99.90;;;;;;5106978;28;20373;-78
2023/11/16 03:11:32;;;;;;;0.30;0.20;;;11.40;99.90;;;;;;5107195;28;20168;-78
2023/11/16 03:13:58;;;;;;;0.30;0.20;;;11.40;99.90;;;;;;5105558;28;20407;-79
2023/11/16 03:16:25;;;;;;;0.30;0.20;;;11.30;99.90;;;;;;5106803;28;20219;-78
2023/11/16 03:18:52;;;;;;;0.30;0.20;;;11.40;99.90;;;;;;5106615;28;20202;-79
2023/11/16 03:21:18;;;;;;;0.30;0.20;;;11.30;99.90;;;;;;5107000;28;20172;-78
2023/11/16 03:23:44;;;;;;;0.30;0.20;;;11.30;99.90;;;;;;5107212;28;20274;-78
2023/11/16 03:26:10;;;;;;;0.30;0.20;;;11.30;99.90;;;;;;5107226;28;20223;-78
2023/11/16 03:28:36;;;;;;;0.30;0.20;;;11.30;99.90;;;;;;5107145;28;20357;-78
2023/11/16 03:31:05;;;;;;;0.30;0.20;;;11.30;99.90;;;;;;5107040;28;20595;-77
2023/11/16 03:33:31;;;;;;;0.30;0.20;;;11.30;99.90;;;;;;5105444;28;20689;-79
2023/11/16 03:35:58;;;;;;;0.30;0.20;;;11.30;99.90;;;;;;5106721;28;20206;-79
2023/11/16 03:38:24;;;;;;;0.30;0.20;;;11.30;99.90;;;;;;5103630;28;20203;-78
2023/11/16 03:40:50;;;;;;;0.30;0.20;;;11.30;99.90;;;;;;5106308;28;20167;-77
2023/11/16 03:43:16;;;;;;;0.30;0.20;;;11.30;99.90;;;;;;5106783;28;20711;-78
2023/11/16 03:45:42;;;;;;;0.30;0.20;;;11.30;99.90;;;;;;5106469;28;20282;-77
2023/11/16 03:48:11;;;;;;;0.30;0.20;;;11.30;99.90;;;;;;5105020;28;20499;-79
2023/11/16 03:50:37;;;;;;;0.30;0.20;;;11.30;99.90;;;;;;5106666;28;20443;-77
2023/11/16 03:53:03;;;;;;;0.30;0.20;;;11.30;99.90;;;;;;5106576;28;20252;-78
2023/11/16 03:55:28;;;;;;;0.30;0.20;;;11.30;99.90;;;;;;5106412;28;20172;-78
2023/11/16 03:57:54;;;;;;;0.30;0.20;;;11.30;99.90;;;;;;5106012;28;20195;-78
2023/11/16 04:00:21;;;;;;;0.30;0.20;;;11.30;99.90;;;;;;5106200;28;20172;-79
2023/11/16 04:02:48;;;;;;;0.30;0.20;;;11.30;99.90;;;;;;5104516;28;20179;-78
2023/11/16 04:05:16;;;;;;;0.30;0.20;;;11.30;99.90;;;;;;5104844;28;20222;-78
2023/11/16 04:07:42;;;;;;;0.30;0.20;;;11.30;99.90;;;;;;5104580;28;20175;-78
2023/11/16 04:10:09;;;;;;;0.57;0.57;;;11.40;99.90;;;;;;5104463;28;20191;-78
2023/11/16 04:12:40;;;;;;;0.30;0.20;;;11.30;99.90;;;;;;5106319;28;20521;-78
2023/11/16 04:15:13;;;;;;;0.30;0.20;;;11.40;99.90;;;;;;5104467;28;20176;-78
2023/11/16 04:17:44;;;;;;;0.30;0.20;;;11.40;99.90;;;;;;5106239;28;20184;-79
2023/11/16 04:20:11;;;;;;;0.30;0.20;;;11.40;99.90;;;;;;5106179;28;20688;-79
2023/11/16 04:22:39;;;;;;;0.30;0.20;;;11.40;99.90;;;;;;5106061;28;20532;-79
2023/11/16 04:25:18;;;;;;;0.30;0.20;;;11.40;99.90;;;;;;5106085;28;20290;-78
2023/11/16 04:27:47;;;;;;;0.30;0.20;;;11.40;99.90;;;;;;5106289;28;20639;-78
2023/11/16 04:30:14;;;;;;;0.30;0.20;;;11.30;99.90;;;;;;5104521;28;20190;-78
2023/11/16 04:32:45;;;;;;;0.30;0.20;;;11.30;99.90;;;;;;5106060;28;20262;-79
2023/11/16 04:35:13;;;;;;;0.30;0.20;;;11.30;99.90;;;;;;5105073;28;20171;-79
2023/11/16 04:37:38;;;;;;;0.30;0.20;;;11.30;99.90;;;;;;5105633;28;20178;-78
2023/11/16 04:40:09;;;;;;;0.30;0.30;;;11.30;99.90;;;;;;5103098;28;20183;-78
2023/11/16 04:42:35;;;;;;;0.30;0.20;;;11.30;99.90;;;;;;5105586;28;20395;-78
2023/11/16 04:45:06;;;;;;;0.30;0.20;;;11.30;99.90;;;;;;5104850;28;20312;-79
2023/11/16 04:47:36;;;;;;;0.30;0.20;;;11.30;99.90;;;;;;5104375;28;20965;-79
2023/11/16 04:50:05;;;;;;;0.30;0.20;;;11.30;99.90;;;;;;5105039;28;20202;-78
2023/11/16 04:52:33;;;;;;;6.32;3.17;;;11.30;99.90;;;;;;5108405;28;20270;-78
2023/11/16 04:54:59;;;;;;;0.30;0.30;;;11.30;99.90;;;;;;5108309;28;20287;-77
2023/11/16 04:57:25;;;;;;;0.30;0.20;;;11.20;99.90;;;;;;5108414;28;20689;-78
2023/11/16 04:59:50;;;;;;;0.30;0.20;;;11.20;99.90;;;;;;5109502;28;20270;-79
2023/11/16 05:02:16;;;;;;;0.30;0.20;;;11.10;99.90;;;;;;5109313;28;20254;-78
2023/11/16 05:04:44;;;;;;;0.30;0.20;;;11.10;99.90;;;;;;5108209;28;20195;-78
2023/11/16 05:07:10;;;;;;;0.30;0.20;;;11.10;99.90;;;;;;5109226;28;20620;-78
2023/11/16 05:09:37;;;;;;;0.30;0.20;;;11.10;99.90;;;;;;5107942;28;20252;-79
2023/11/16 05:12:03;;;;;;;0.30;0.20;;;11.00;99.90;;;;;;5109054;28;20176;-79
2023/11/16 05:14:28;;;;;;;0.30;0.20;;;10.90;99.90;;;;;;5109469;28;20351;-79
2023/11/16 05:16:54;;;;;;;0.30;0.20;;;10.90;99.90;;;;;;5106800;28;20467;-81
2023/11/16 05:19:20;;;;;;;0.30;0.20;;;10.90;99.90;;;;;;5108877;28;20188;-80
2023/11/16 05:21:45;;;;;;;0.30;0.20;;;10.80;99.90;;;;;;5108457;28;20291;-79
2023/11/16 05:24:11;;;;;;;0.30;0.20;;;10.80;99.90;;;;;;5105483;28;20224;-79
2023/11/16 05:26:38;;;;;;;0.30;0.20;;;10.70;99.90;;;;;;5108246;28;20203;-79
2023/11/16 05:29:04;;;;;;;0.30;0.20;;;10.70;99.90;;;;;;5107349;27;20227;-82
2023/11/16 05:31:30;;;;;;;0.30;0.20;;;10.70;99.90;;;;;;5124371;27;20244;-80
2023/11/16 05:33:57;;;;;;;0.30;0.20;;;10.70;99.90;;;;;;5103323;28;20219;-80
2023/11/16 05:36:22;;;;;;;2.78;2.67;;;10.70;99.90;;;;;;5121065;27;20397;-79
2023/11/16 05:38:49;;;;;;;0.40;0.30;;;10.70;99.90;;;;;;5121948;27;20200;-79
2023/11/16 05:41:15;;;;;;;0.30;0.20;;;10.70;99.90;;;;;;5107380;28;20355;-79
2023/11/16 05:43:41;;;;;;;0.30;0.20;;;10.70;99.90;;;;;;5106602;28;20214;-80
2023/11/16 05:46:07;;;;;;;0.30;0.20;;;10.70;99.90;;;;;;5105901;28;20683;-79
2023/11/16 05:48:32;;;;;;;0.30;0.20;;;10.70;99.90;;;;;;5105332;28;20232;-79
2023/11/16 05:50:58;;;;;;;0.30;0.20;;;10.70;99.90;;;;;;5104061;28;20183;-79
2023/11/16 05:53:24;;;;;;;0.30;0.20;;;10.70;99.90;;;;;;5106780;28;20188;-78
2023/11/16 05:55:51;;;;;;;0.30;0.20;;;10.60;99.90;;;;;;5103851;28;20485;-78
2023/11/16 05:58:17;;;;;;;0.30;0.20;;;10.60;99.90;;;;;;5105266;28;20290;-79
2023/11/16 06:00:43;;;;;;;0.63;0.63;;;10.50;99.90;;;;;;5104241;28;20287;-78
2023/11/16 06:03:10;;;;;;;0.30;0.20;;;10.40;99.90;;;;;;5106654;28;20239;-79
2023/11/16 06:05:37;;;;;;;0.30;0.20;;;10.30;99.90;;;;;;5107146;28;20215;-77
2023/11/16 06:08:02;;;;;;;0.30;0.20;;;10.30;99.90;;;;;;5106390;28;20695;-78
2023/11/16 06:10:28;;;;;;;0.30;0.20;;;10.20;99.90;;;;;;5106850;28;20183;-78
2023/11/16 06:12:57;;;;;;;0.30;0.20;;;10.20;99.90;;;;;;5106628;28;20180;-77
2023/11/16 06:15:25;;;;;;;0.30;0.20;;;10.20;99.90;;;;;;5106143;28;20416;-77
2023/11/16 06:17:54;;;;;;;0.30;0.20;;;10.20;99.90;;;;;;5104030;28;20649;-77
2023/11/16 06:20:20;;;;;;;0.30;0.20;;;10.20;99.90;;;;;;5118408;27;20218;-79
2023/11/16 06:22:46;;;;;;;0.30;0.20;;;10.20;99.90;;;;;;5106843;28;20240;-77
2023/11/16 06:25:12;;;;;;;0.30;0.20;;;10.20;99.90;;;;;;5113640;27;20298;-78
2023/11/16 06:27:39;;;;;;;0.30;0.20;;;10.30;99.90;;;;;;5104542;28;20224;-77
2023/11/16 06:30:08;;;;;;;0.30;0.20;;;10.30;99.90;;;;;;5100291;28;20189;-78
2023/11/16 06:32:37;;;;;;;0.30;0.20;;;10.30;99.90;;;;;;5104778;28;20656;-78
2023/11/16 06:35:03;;;;;;;0.30;0.20;;;10.30;99.90;;;;;;5105696;27;20261;-78
2023/11/16 06:37:29;;;;;;;0.30;0.20;;;10.40;99.90;;;;;;5094518;28;20176;-80
2023/11/16 06:39:55;;;;;;;0.30;0.20;;;10.40;99.90;;;;;;5106239;28;20211;-80
2023/11/16 06:42:20;;;;;;;10.57;9.50;;;10.50;99.90;;;;;;5105466;28;20172;-82
2023/11/16 06:44:48;;;;;;;0.30;0.30;;;10.50;99.90;;;;;;5106409;28;20279;-80
2023/11/16 06:47:16;;;;;;;0.30;0.20;;;10.60;99.90;;;;;;5103905;28;20192;-80
2023/11/16 06:49:42;;;;;;;0.30;0.25;;;10.70;99.90;;;;;;5109136;27;20204;-80
2023/11/16 06:52:13;;;;;;;0.30;0.30;;;10.80;99.90;;;;;;5104400;28;20183;-80
2023/11/16 06:54:41;;;;;;;0.30;0.25;;;10.90;99.90;;;;;;5104136;28;20241;-81
2023/11/16 06:57:07;;;;;;;0.40;0.30;;;11.30;99.90;;;;;;5099193;28;20235;-81
2023/11/16 06:59:34;;;;;;;0.30;0.20;;;11.60;99.90;;;;;;5117005;27;20196;-81
2023/11/16 07:02:00;;;;;;;0.32;0.32;;;12.00;99.90;;;;;;5101949;27;20232;-81
2023/11/16 07:04:26;;;;;;;0.30;0.20;;;12.20;99.90;;;;;;5104119;28;20196;-81
2023/11/16 07:06:56;;;;;;;0.30;0.30;;;12.40;99.90;;;;;;5099522;28;20538;-81
2023/11/16 07:09:23;;;;;;;1.38;1.27;;;12.40;99.90;;;;;;5100086;28;20923;-81
2023/11/16 07:11:53;;;;;;;0.30;0.20;;;12.50;99.90;;;;;;5101551;28;20262;-81
2023/11/16 07:14:19;;;;;;;0.30;0.20;;;12.60;99.90;;;;;;5101836;28;20444;-81
2023/11/16 07:16:45;;;;;;;0.30;0.20;;;12.70;99.90;;;;;;5107611;27;20544;-80
2023/11/16 07:19:16;;;;;;;0.30;0.20;;;12.90;99.90;;;;;;5099592;28;20519;-80
2023/11/16 07:21:42;;;;;;;0.30;0.20;;;13.20;99.90;;;;;;5098569;28;20435;-78
2023/11/16 07:24:10;;;;;;;0.40;0.20;;;13.50;99.90;;;;;;5101327;28;20440;-81
2023/11/16 07:26:36;;;;;;;0.30;0.20;;;13.60;99.90;;;;;;5095918;28;20474;-78
2023/11/16 07:29:02;;;;;;;0.30;0.20;;;13.70;99.90;;;;;;5115852;27;20496;-75
2023/11/16 07:31:28;;;;;;;0.30;0.20;;;13.80;99.90;;;;;;5093781;28;20965;-75
2023/11/16 07:33:54;;;;;;;0.30;0.20;;;13.80;99.90;;;;;;5098106;28;20415;-75
2023/11/16 07:36:26;;;;;;;3.60;3.40;;;13.80;99.90;;;;;;5100302;28;20503;-75
2023/11/16 07:38:57;;;;;;;0.40;0.40;;;14.00;99.90;;;;;;5100321;28;20448;-76
2023/11/16 07:41:23;;;;;;;0.30;0.20;;;14.00;99.90;;;;;;5085088;28;20402;-75
2023/11/16 07:43:49;;;;;;;0.40;0.20;;;14.10;99.90;;;;;;5090974;28;20452;-76
2023/11/16 07:46:15;;;;;;;2.73;1.60;;;14.20;99.90;;;;;;5089665;28;20506;-76
2023/11/16 07:48:40;;;;;;;0.40;0.20;;;14.60;99.90;;;;;;5114810;27;20199;-76
2023/11/16 07:51:08;;;;;;;0.40;0.20;;;15.40;99.90;;;;;;5100339;28;21084;-76
2023/11/16 07:53:34;;;;;;;0.30;0.20;;;16.20;99.90;;;;;;5110289;27;20968;-76
2023/11/16 07:56:05;;;;;;;0.40;0.20;;;17.20;99.90;;;;;;5100942;28;20401;-77
2023/11/16 07:58:33;;;;;;;0.40;0.23;;;18.00;99.90;;;;;;5100116;28;20846;-75
2023/11/16 08:01:22;;;;;;;0.40;0.30;;;18.70;99.90;;;;;;5101136;28;20520;-77
2023/11/16 08:03:46;;;;;;;0.40;0.20;;;19.40;99.90;;;;;;5101018;28;20876;-75
2023/11/16 08:06:14;;;;;;;0.30;0.20;;;19.90;99.90;;;;;;5124420;27;20471;-76
2023/11/16 08:08:45;;;;;;;0.30;0.20;;;20.00;99.90;;;;;;5101500;28;20466;-76
2023/11/16 08:11:11;;;;;;;0.67;0.67;;;19.90;99.90;;;;;;5100289;28;20428;-76
2023/11/16 08:13:47;;;;;;;0.40;0.20;;;19.80;99.90;;;;;;5102686;28;20442;-76
2023/11/16 08:16:15;;;;;;;0.30;0.20;;;19.60;99.90;;;;;;5096805;28;20568;-76
2023/11/16 08:18:43;;;;;;;0.30;0.20;;;19.50;99.90;;;;;;5102393;28;20537;-76
2023/11/16 08:21:09;;;;;;;0.63;0.63;;;19.60;99.90;;;;;;5105528;27;20434;-76
2023/11/16 08:23:39;;;;;;;0.30;0.20;;;19.70;99.90;;;;;;5094014;28;20890;-75
2023/11/16 08:26:12;;;;;;;0.30;0.20;;;19.70;99.90;;;;;;5092175;28;20622;-76
2023/11/16 08:28:40;;;;;;;0.30;0.20;;;19.60;99.90;;;;;;5103393;27;21457;-76
2023/11/16 08:31:06;;;;;;;0.30;0.20;;;19.50;99.90;;;;;;5098156;28;21060;-76
2023/11/16 08:33:37;;;;;;;0.30;0.20;;;19.50;99.90;;;;;;5101683;28;20508;-75
2023/11/16 08:36:03;;;;;;;0.53;0.53;;;19.60;99.90;;;;;;5102131;28;20518;-76
2023/11/16 08:38:29;;;;;;;0.30;0.20;;;19.70;99.90;;;;;;5101146;28;20537;-78
2023/11/16 08:41:00;;;;;;;0.30;0.20;;;19.40;99.90;;;;;;5100232;28;20425;-75
2023/11/16 08:43:32;;;;;;;0.30;0.20;;;19.10;99.90;;;;;;5109677;28;20786;-75
2023/11/16 08:45:57;;;;;;;0.30;0.20;;;18.90;99.90;;;;;;5080313;28;20458;-76
2023/11/16 08:48:33;;;;;;;0.30;0.20;;;18.60;99.90;;;;;;5103425;28;20453;-77
2023/11/16 08:51:05;;;;;;;0.30;0.20;;;18.50;99.90;;;;;;5096901;28;20430;-76
2023/11/16 08:53:36;;;;;;;0.30;0.20;;;18.30;99.90;;;;;;5094400;28;20475;-76
2023/11/16 08:56:03;;;;;;;0.30;0.20;;;18.10;99.90;;;;;;5099008;28;20443;-76
2023/11/16 08:58:33;;;;;;;0.30;0.20;;;18.10;99.90;;;;;;5098594;28;20460;-76
2023/11/16 09:01:02;;;;;;;0.30;0.20;;;18.00;99.90;;;;;;5096878;28;20531;-75
2023/11/16 09:03:28;;;;;;;0.30;0.20;;;18.20;99.90;;;;;;5103009;28;20459;-75
2023/11/16 09:05:54;;;;;;;0.30;0.20;;;18.50;99.90;;;;;;5102684;28;20465;-75
2023/11/16 09:08:23;;;;;;;0.30;0.20;;;18.70;99.90;;;;;;5092877;28;20851;-75
2023/11/16 09:10:50;;;;;;;0.30;0.20;;;18.70;99.90;;;;;;5099266;28;20928;-75
2023/11/16 09:13:15;;;;;;;0.30;0.20;;;18.50;99.90;;;;;;5107489;28;20473;-75
2023/11/16 09:15:43;;;;;;;0.30;0.20;;;18.20;99.90;;;;;;5092349;28;20850;-75
2023/11/16 09:18:09;;;;;;;0.30;0.20;;;18.00;99.90;;;;;;5093309;28;20208;-74
2023/11/16 09:20:35;;;;;;;0.30;0.20;;;17.80;99.90;;;;;;5092050;28;20428;-75
2023/11/16 09:23:03;;;;;;;0.30;0.20;;;17.70;99.90;;;;;;5093568;28;20451;-74
2023/11/16 09:25:30;;;;;;;0.30;0.20;;;17.60;99.90;;;;;;5092643;28;20482;-75
2023/11/16 09:27:56;;;;;;;0.30;0.20;;;17.50;99.90;;;;;;5098783;28;20436;-75
2023/11/16 09:30:27;;;;;;;0.30;0.20;;;17.40;99.90;;;;;;5096147;28;20427;-75
2023/11/16 09:32:54;;;;;;;0.30;0.20;;;17.40;99.90;;;;;;5098381;28;20432;-74
2023/11/16 09:35:24;;;;;;;0.30;0.20;;;17.20;99.90;;;;;;5101969;28;20819;-75
2023/11/16 09:37:53;;;;;;;2.57;2.47;;;17.10;99.90;;;;;;5097671;28;20856;-74
2023/11/16 09:40:30;;;;;;;0.40;0.20;;;17.10;99.90;;;;;;5100539;28;20470;-75
2023/11/16 09:43:16;;;;;;;0.30;0.20;;;17.10;99.90;;;;;;5102480;28;20495;-74
2023/11/16 09:45:47;;;;;;;0.30;0.20;;;17.00;99.90;;;;;;5103204;28;20680;-74
2023/11/16 09:48:12;;;;;;;0.30;0.20;;;17.00;99.90;;;;;;5106123;28;20447;-75
2023/11/16 09:50:44;;;;;;;0.30;0.20;;;17.00;99.90;;;;;;5110785;27;20481;-74
2023/11/16 09:53:16;;;;;;;0.30;0.20;;;17.00;99.90;;;;;;5103386;28;20514;-74
2023/11/16 09:55:56;;;;;;;0.30;0.20;;;16.90;99.90;;;;;;5103672;28;20655;-75
2023/11/16 09:58:29;;;;;;;0.30;0.20;;;16.90;99.90;;;;;;5099930;28;20998;-75
2023/11/16 10:00:58;;;;;;;0.30;0.20;;;16.90;99.90;;;;;;5094147;28;20434;-74
2023/11/16 10:03:34;;;;;;;0.30;0.20;;;16.80;99.90;;;;;;5098227;28;20948;-76
2023/11/16 10:06:03;;;;;;;0.30;0.20;;;16.80;99.90;;;;;;5100069;28;20603;-76
2023/11/16 10:08:30;;;;;;;0.30;0.20;;;16.80;99.90;;;;;;5110152;27;20887;-75
2023/11/16 10:11:05;;;;;;;0.30;0.20;;;16.70;99.90;;;;;;5099757;28;20507;-74
2023/11/16 10:13:35;;;;;;;0.30;0.20;;;16.70;99.90;;;;;;5097288;28;20455;-74
2023/11/16 10:16:11;;;;;;;0.30;0.20;;;16.70;99.90;;;;;;5096296;28;21056;-74
2023/11/16 10:18:38;;;;;;;0.30;0.20;;;16.80;99.90;;;;;;5100415;28;20456;-74
2023/11/16 10:21:05;;;;;;;0.30;0.20;;;16.80;99.90;;;;;;5118673;27;20937;-76
2023/11/16 10:23:31;;;;;;;0.30;0.20;;;16.80;99.90;;;;;;5097093;28;21235;-74
2023/11/16 10:25:59;;;;;;;0.30;0.20;;;16.80;99.90;;;;;;5090063;28;20904;-74
2023/11/16 10:28:26;;;;;;;0.30;0.20;;;16.80;99.90;;;;;;5096366;28;21030;-74
2023/11/16 10:30:58;;;;;;;0.30;0.20;;;16.80;99.90;;;;;;5090000;28;20961;-75
2023/11/16 10:33:26;;;;;;;0.30;0.20;;;16.70;99.90;;;;;;5097610;28;20547;-75
2023/11/16 10:35:56;;;;;;;0.30;0.20;;;16.70;99.90;;;;;;5103543;28;20923;-75
2023/11/16 10:38:23;;;;;;;0.30;0.20;;;16.60;99.90;;;;;;5102082;28;20788;-75
2023/11/16 10:40:52;;;;;;;0.30;0.20;;;16.60;99.90;;;;;;5106331;28;20416;-75
2023/11/16 10:43:25;;;;;;;1.13;1.00;;;16.50;99.90;;;;;;5103904;27;20564;-76
2023/11/16 10:45:53;;;;;;;0.30;0.20;;;16.40;99.90;;;;;;5095722;28;20628;-75
2023/11/16 10:48:19;;;;;;;0.40;0.40;;;16.40;99.90;;;;;;5106972;27;20451;-76
2023/11/16 10:50:45;;;;;;;0.30;0.30;;;16.30;99.90;;;;;;5100200;28;20727;-75
2023/11/16 10:53:22;;;;;;;0.30;0.20;;;16.30;99.90;;;;;;5102111;28;20435;-75
2023/11/16 10:55:50;;;;;;;0.30;0.20;;;16.40;99.90;;;;;;5097416;28;20443;-75
2023/11/16 10:58:22;;;;;;;0.30;0.20;;;16.30;99.90;;;;;;5101851;28;21232;-76
2023/11/16 11:00:52;;;;;;;0.30;0.20;;;16.40;99.90;;;;;;5101574;27;20420;-74
2023/11/16 11:03:19;;;;;;;0.30;0.20;;;16.40;99.90;;;;;;5106197;27;20513;-75
2023/11/16 11:05:52;;;;;;;0.30;0.20;;;16.40;99.90;;;;;;5094416;28;20468;-74
2023/11/16 11:08:19;;;;;;;0.30;0.20;;;16.40;99.90;;;;;;5098834;28;20483;-74
2023/11/16 11:10:49;;;;;;;0.30;0.20;;;16.40;99.90;;;;;;5095418;28;20504;-75
2023/11/16 11:13:25;;;;;;;0.30;0.20;;;16.40;99.90;;;;;;5102347;27;20818;-74
2023/11/16 11:15:53;;;;;;;0.30;0.20;;;16.30;99.90;;;;;;5092494;28;20482;-74
2023/11/16 11:18:26;;;;;;;0.30;0.20;;;16.40;99.90;;;;;;5105140;27;20781;-75
2023/11/16 11:20:53;;;;;;;0.30;0.20;;;16.40;99.90;;;;;;5096786;28;20408;-74
2023/11/16 11:23:19;;;;;;;0.40;0.20;;;16.40;99.90;;;;;;5098066;28;20788;-74
2023/11/16 11:25:48;;;;;;;0.30;0.20;;;16.40;99.90;;;;;;5086591;28;20671;-75
2023/11/16 11:28:15;;;;;;;0.30;0.20;;;16.50;99.90;;;;;;5086107;28;20455;-75
2023/11/16 11:30:59;;;;;;;0.30;0.20;;;16.50;99.90;;;;;;5118445;27;20780;-75
2023/11/16 11:33:39;;;;;;;0.30;0.20;;;16.50;99.90;;;;;;5098955;28;20523;-75
2023/11/16 11:36:11;;;;;;;0.30;0.20;;;16.60;99.90;;;;;;5102354;28;20504;-75
2023/11/16 11:38:42;;;;;;;0.30;0.20;;;16.60;99.90;;;;;;5098150;28;20965;-76
2023/11/16 11:41:12;;;;;;;0.30;0.20;;;16.60;99.90;;;;;;5093311;28;20408;-75
2023/11/16 11:43:42;;;;;;;0.30;0.20;;;16.50;99.90;;;;;;5092891;28;20876;-75
2023/11/16 11:46:18;;;;;;;0.70;0.40;;;16.50;99.90;;;;;;5092625;28;20980;-75
2023/11/16 11:48:45;;;;;;;0.30;0.20;;;16.50;99.90;;;;;;5093534;28;20459;-75
2023/11/16 11:51:11;;;;;;;0.30;0.20;;;16.50;99.90;;;;;;5091123;28;20436;-75
2023/11/16 11:53:38;;;;;;;0.30;0.20;;;16.50;99.90;;;;;;5091020;28;20463;-74
2023/11/16 11:56:06;;;;;;;0.30;0.20;;;16.50;99.90;;;;;;5093055;28;20921;-76
2023/11/16 11:58:35;;;;;;;0.30;0.20;;;16.50;99.90;;;;;;5093776;28;20884;-76
2023/11/16 12:01:03;;;;;;;0.30;0.20;;;16.50;99.90;;;;;;5091709;28;20416;-74
2023/11/16 12:03:28;;;;;;;0.30;0.20;;;16.60;99.90;;;;;;5095089;28;20454;-74
2023/11/16 12:05:58;;;;;;;0.30;0.20;;;16.60;99.90;;;;;;5094143;28;20478;-76
2023/11/16 12:08:51;;;;;;;0.63;0.60;;;16.70;99.90;;;;;;5092559;28;21981;-74
2023/11/16 12:11:22;;;;;;;0.30;0.20;;;16.70;99.90;;;;;;5099281;27;20442;-74
2023/11/16 12:13:53;;;;;;;0.30;0.20;;;16.80;99.90;;;;;;5099790;28;20466;-74
2023/11/16 12:16:18;;;;;;;0.30;0.20;;;16.80;99.90;;;;;;5096127;28;20492;-74
2023/11/16 12:18:46;;;;;;;0.30;0.20;;;16.80;99.90;;;;;;5096195;28;20486;-74
2023/11/16 12:21:15;;;;;;;0.30;0.20;;;16.80;99.90;;;;;;5092599;28;20196;-74
2023/11/16 12:23:44;;;;;;;0.30;0.20;;;16.80;99.90;;;;;;5093690;28;20580;-74
2023/11/16 12:26:10;;;;;;;0.30;0.20;;;16.90;99.90;;;;;;5089746;28;20746;-74
2023/11/16 12:28:36;;;;;;;0.30;0.20;;;16.90;99.90;;;;;;5098108;28;20531;-74
2023/11/16 12:31:03;;;;;;;0.30;0.20;;;17.00;99.90;;;;;;5101783;27;21085;-75
2023/11/16 12:33:30;;;;;;;0.30;0.20;;;17.10;99.90;;;;;;5097576;28;20446;-74
2023/11/16 12:35:56;;;;;;;0.30;0.20;;;17.10;99.90;;;;;;5088485;28;20419;-74
2023/11/16 12:38:22;;;;;;;0.30;0.20;;;17.10;99.90;;;;;;5103032;28;20604;-74
2023/11/16 12:40:48;;;;;;;0.30;0.20;;;17.10;99.90;;;;;;5093015;28;20506;-74
2023/11/16 12:43:14;;;;;;;0.30;0.20;;;17.20;99.90;;;;;;5086185;28;20464;-74
2023/11/16 12:45:41;;;;;;;4.83;0.83;;;17.10;99.90;;;;;;5082485;28;20472;-74
2023/11/16 12:48:08;;;;;;;0.30;0.20;;;17.20;99.90;;;;;;5100398;28;20451;-75
2023/11/16 12:50:34;;;;;;;0.30;0.20;;;17.20;99.90;;;;;;5099442;28;20495;-74